Airfield :
LOGIN :

Register | Disclaimer

   EN    FR    IT 

 










Legend :    VFR   Marginal VFR   IFR   Intensive IFR   Very Intensive IFR
Visi :
Ceiling :
>= 8 km
>= 3000ft
5 to 8 km
1000 to 3000 ft
1500m to 5 km
500 to 1000 ft
800 to 1500m
200 to 500 ft
< 800m
< 200 ft
Symbols :   Thunderstorms  Fog  Heavy snow  Heavy precipitations  Wind > 20 kt
SIGMETs :     Misc.  Thunderstorms  Icing  Turbulence  Mountain Waves  Volcanic Ashes






- Airport Elevation : 83 ft
- IATA code : LHR


EGLL - London Heathrow

CURRENT METAR :
  • 241020Z AUTO VRB02KT 8000 BKN011 OVC017 06/06 Q1024 TEMPO BKN015

EXPIRED METARs :
  • 240950Z AUTO VRB03KT 6000 SCT008 OVC015 06/05 Q1024 TEMPO BKN012
  • 240920Z AUTO VRB02KT 6000 OVC013 06/05 Q1024
  • 240850Z AUTO 30003KT 9999 OVC013 06/05 Q1024 TEMPO BKN015
  • 240820Z AUTO VRB03KT 9000 OVC014 06/05 Q1024 TEMPO BKN015
  • 240750Z AUTO VRB02KT 7000 FEW008 BKN012 OVC017 06/05 Q1024 TEMPO 4000 BR

TAF TAF EGLL
Valid from the 24 at 06:00 until the 25 at 12:00 UTC


240501Z 2406/2512 VRB03KT 6000 BKN016
TEMPO 2406/2412 4000 BR BKN009
PROB30
TEMPO 2406/2410 BKN003
TEMPO 2412/2417 9999
TEMPO 2415/2501 4000 -RADZ BKN009
TEMPO 2506/2512 4000 -RADZ BKN012



MET'MAP, your aeronautical weather chart ! - Copyright ORBIFLY December 2007 - Disclaimer

ORBIFLY MET'MAP TEAM :

Programming & Development : Alexandra Zaïnal
Concept & original design : Baudouin d'Aumeries
Assistance for programming : Marc-Olivier Méhu
Technical & hardware support : Manuel Goepfert

Contact : metmap@orbifly.com




SOURCES & CREDITS :

   NOAA